Time;durP1;ratioP1;P1;durP2;ratioP2;P2;SDS_P1;SDS_P2;PMS_P1;PMS_P2;Temp;Humidity;BMP_temperature;BMP_pressure;BME280_temperature;BME280_humidity;BME280_pressure;Samples;Min_cycle;Max_cycle;Signal;HPM_P1;HPM_P2
2024/02/26 00:01:50;;;;;;;3.60;3.00;;;;;;;;;;5136133;28;20873;-44
2024/02/26 00:04:16;;;;;;;3.60;2.67;;;;;;;;;;5135869;28;20424;-45
2024/02/26 00:06:42;;;;;;;3.00;2.70;;;;;;;;;;5133777;28;20428;-45
2024/02/26 00:09:08;;;;;;;2.33;2.13;;;;;;;;;;5134501;28;20679;-46
2024/02/26 00:11:37;;;;;;;4.27;2.20;;;;;;;;;;5137414;27;20460;-46
2024/02/26 00:14:03;;;;;;;3.40;2.07;;;;;;;;;;5119900;27;20464;-46
2024/02/26 00:16:29;;;;;;;5.83;3.50;;;;;;;;;;5139082;27;20453;-45
2024/02/26 00:18:55;;;;;;;4.20;3.20;;;;;;;;;;5139161;27;20520;-44
2024/02/26 00:21:21;;;;;;;3.60;3.27;;;;;;;;;;5136990;27;20875;-44
2024/02/26 00:23:47;;;;;;;2.90;2.40;;;;;;;;;;5137940;27;20432;-43
2024/02/26 00:26:15;;;;;;;2.60;2.07;;;;;;;;;;5138019;27;20496;-43
2024/02/26 00:28:41;;;;;;;2.70;2.00;;;;;;;;;;5137460;27;20416;-48
2024/02/26 00:31:07;;;;;;;2.20;1.90;;;;;;;;;;5119460;27;20566;-43
2024/02/26 00:33:33;;;;;;;3.23;1.07;;;;;;;;;;5137662;27;20488;-49
2024/02/26 00:35:59;;;;;;;2.07;1.03;;;;;;;;;;5139154;27;20473;-47
2024/02/26 00:38:25;;;;;;;1.67;1.07;;;;;;;;;;5138816;27;20393;-47
2024/02/26 00:40:51;;;;;;;3.50;1.57;;;;;;;;;;5138293;27;20400;-46
2024/02/26 00:43:17;;;;;;;2.10;1.33;;;;;;;;;;5138299;27;20440;-48
2024/02/26 00:45:43;;;;;;;1.77;1.10;;;;;;;;;;5138915;27;20667;-50
2024/02/26 00:48:09;;;;;;;4.30;1.60;;;;;;;;;;5138458;27;20516;-47
2024/02/26 00:50:35;;;;;;;2.30;1.40;;;;;;;;;;5138577;27;20803;-48
2024/02/26 00:53:01;;;;;;;1.70;1.37;;;;;;;;;;5138690;27;20405;-49
2024/02/26 00:55:27;;;;;;;2.17;1.50;;;;;;;;;;5139216;27;20428;-48
2024/02/26 00:57:53;;;;;;;1.77;1.17;;;;;;;;;;5138999;27;20416;-48
2024/02/26 01:00:19;;;;;;;1.87;1.40;;;;;;;;;;5137651;27;20607;-46
2024/02/26 01:02:46;;;;;;;2.17;1.80;;;;;;;;;;5136522;27;20440;-46
2024/02/26 01:05:12;;;;;;;3.03;1.30;;;;;;;;;;5137280;27;20409;-49
2024/02/26 01:07:39;;;;;;;7.00;1.57;;;;;;;;;;5136740;27;20439;-49
2024/02/26 01:10:05;;;;;;;2.00;1.20;;;;;;;;;;5137333;27;20424;-48
2024/02/26 01:12:32;;;;;;;2.40;1.47;;;;;;;;;;5137336;27;20840;-48
2024/02/26 01:14:58;;;;;;;1.87;1.60;;;;;;;;;;5138241;27;20478;-50
2024/02/26 01:17:24;;;;;;;2.10;1.53;;;;;;;;;;5138064;27;20416;-49
2024/02/26 01:19:50;;;;;;;3.00;1.60;;;;;;;;;;5138184;27;20405;-49
2024/02/26 01:22:16;;;;;;;1.90;1.60;;;;;;;;;;5137028;27;20806;-50
2024/02/26 01:24:42;;;;;;;2.87;1.60;;;;;;;;;;5135782;27;20429;-47
2024/02/26 01:27:09;;;;;;;2.67;2.10;;;;;;;;;;5138019;27;20436;-51
2024/02/26 01:29:35;;;;;;;3.53;1.73;;;;;;;;;;5137270;27;20435;-49
2024/02/26 01:32:01;;;;;;;2.50;1.87;;;;;;;;;;5136821;27;20628;-45
2024/02/26 01:34:27;;;;;;;4.30;2.20;;;;;;;;;;5137327;27;20412;-45
2024/02/26 01:36:53;;;;;;;3.23;2.47;;;;;;;;;;5136330;27;20424;-45
2024/02/26 01:39:19;;;;;;;3.07;1.80;;;;;;;;;;5137524;27;20647;-43
2024/02/26 01:41:45;;;;;;;3.80;2.10;;;;;;;;;;5137308;27;20521;-45
2024/02/26 01:44:16;;;;;;;4.03;2.00;;;;;;;;;;5137661;27;20449;-48
2024/02/26 01:46:42;;;;;;;1.70;1.40;;;;;;;;;;5136892;27;20420;-47
2024/02/26 01:49:09;;;;;;;2.30;1.70;;;;;;;;;;5135195;27;20632;-44
2024/02/26 01:51:36;;;;;;;2.17;1.80;;;;;;;;;;5136878;27;20472;-45
2024/02/26 01:54:03;;;;;;;2.50;1.70;;;;;;;;;;5137533;27;20523;-46
2024/02/26 01:56:31;;;;;;;2.97;1.80;;;;;;;;;;5116615;27;20409;-45
2024/02/26 01:58:58;;;;;;;2.43;1.80;;;;;;;;;;5134542;27;20461;-44
2024/02/26 02:01:26;;;;;;;2.80;1.40;;;;;;;;;;5134545;27;20784;-44
2024/02/26 02:03:52;;;;;;;2.50;1.20;;;;;;;;;;5134209;27;20454;-44
2024/02/26 02:06:19;;;;;;;1.60;1.07;;;;;;;;;;5116258;27;20444;-43
2024/02/26 02:08:45;;;;;;;1.90;1.40;;;;;;;;;;5134801;27;20440;-45
2024/02/26 02:11:14;;;;;;;1.50;1.13;;;;;;;;;;5135140;27;20460;-47
2024/02/26 02:13:40;;;;;;;1.17;1.00;;;;;;;;;;5136849;27;20440;-45
2024/02/26 02:16:06;;;;;;;1.57;1.20;;;;;;;;;;5137036;27;20508;-46
2024/02/26 02:18:34;;;;;;;0.87;0.60;;;;;;;;;;5136927;27;20611;-46
2024/02/26 02:21:03;;;;;;;1.00;0.80;;;;;;;;;;5136915;27;20427;-45
2024/02/26 02:23:29;;;;;;;1.13;0.90;;;;;;;;;;5137554;27;20891;-46
2024/02/26 02:25:57;;;;;;;1.10;0.70;;;;;;;;;;5137594;27;20409;-49
2024/02/26 02:28:23;;;;;;;1.93;1.07;;;;;;;;;;5137554;27;20848;-46
2024/02/26 02:30:49;;;;;;;2.43;0.80;;;;;;;;;;5137371;27;20481;-45
2024/02/26 02:33:17;;;;;;;1.30;0.80;;;;;;;;;;5136921;27;20842;-45
2024/02/26 02:35:43;;;;;;;1.70;1.27;;;;;;;;;;5138089;27;20504;-44
2024/02/26 02:38:09;;;;;;;1.43;1.00;;;;;;;;;;5120491;27;20417;-45
2024/02/26 02:40:35;;;;;;;1.40;1.10;;;;;;;;;;5138853;27;20435;-44
2024/02/26 02:43:02;;;;;;;1.30;0.80;;;;;;;;;;5118552;27;20417;-44
2024/02/26 02:45:28;;;;;;;1.20;0.90;;;;;;;;;;5136727;27;20417;-45
2024/02/26 02:47:54;;;;;;;1.50;1.07;;;;;;;;;;5136811;27;20511;-47
2024/02/26 02:50:20;;;;;;;1.43;0.90;;;;;;;;;;5136935;27;20412;-45
2024/02/26 02:52:47;;;;;;;1.17;0.93;;;;;;;;;;5136529;27;20471;-48
2024/02/26 02:55:13;;;;;;;1.30;0.90;;;;;;;;;;5136560;27;20445;-46
2024/02/26 02:57:41;;;;;;;1.40;1.00;;;;;;;;;;5135508;27;20524;-45
2024/02/26 03:00:10;;;;;;;1.60;1.00;;;;;;;;;;5135756;27;20876;-46
2024/02/26 03:02:36;;;;;;;2.07;1.10;;;;;;;;;;5135512;27;20549;-47
2024/02/26 03:05:02;;;;;;;1.10;0.80;;;;;;;;;;5135734;27;20408;-45
2024/02/26 03:07:28;;;;;;;1.33;1.00;;;;;;;;;;5118127;28;20431;-44
2024/02/26 03:09:54;;;;;;;1.00;0.70;;;;;;;;;;5135031;28;20447;-47
2024/02/26 03:12:20;;;;;;;1.43;0.90;;;;;;;;;;5136347;28;20464;-49
2024/02/26 03:14:46;;;;;;;0.83;0.50;;;;;;;;;;5136510;28;20472;-46
2024/02/26 03:17:12;;;;;;;1.10;0.70;;;;;;;;;;5136863;28;20428;-45
2024/02/26 03:19:38;;;;;;;1.27;0.70;;;;;;;;;;5134557;28;20417;-46
2024/02/26 03:22:05;;;;;;;1.33;0.60;;;;;;;;;;5136402;28;20427;-44
2024/02/26 03:24:31;;;;;;;1.30;0.97;;;;;;;;;;5133258;28;20675;-46
2024/02/26 03:26:58;;;;;;;1.10;0.80;;;;;;;;;;5106528;28;20410;-46
2024/02/26 03:29:25;;;;;;;1.20;0.73;;;;;;;;;;5113993;28;20433;-46
2024/02/26 03:31:51;;;;;;;1.47;1.17;;;;;;;;;;5135253;28;20799;-44
2024/02/26 03:34:18;;;;;;;1.33;0.97;;;;;;;;;;5135751;28;20424;-47
2024/02/26 03:36:44;;;;;;;1.63;1.00;;;;;;;;;;5135220;28;20416;-47
2024/02/26 03:39:11;;;;;;;1.43;1.00;;;;;;;;;;5134774;28;20397;-44
2024/02/26 03:41:37;;;;;;;1.90;1.20;;;;;;;;;;5136115;28;20457;-46
2024/02/26 03:44:03;;;;;;;1.83;0.90;;;;;;;;;;5135724;28;20548;-46
2024/02/26 03:46:29;;;;;;;1.23;0.70;;;;;;;;;;5136850;27;20454;-45
2024/02/26 03:48:55;;;;;;;1.50;1.00;;;;;;;;;;5139216;27;20424;-44
2024/02/26 03:51:21;;;;;;;1.70;1.00;;;;;;;;;;5139691;27;20721;-45
2024/02/26 03:53:47;;;;;;;1.77;1.20;;;;;;;;;;5139905;27;20416;-43
2024/02/26 03:56:13;;;;;;;1.00;0.70;;;;;;;;;;5140461;27;20427;-48
2024/02/26 03:58:39;;;;;;;2.17;0.90;;;;;;;;;;5139122;27;20436;-44
2024/02/26 04:01:08;;;;;;;1.37;0.97;;;;;;;;;;5139735;27;20481;-45
2024/02/26 04:03:34;;;;;;;1.47;0.93;;;;;;;;;;5138945;27;20415;-45
2024/02/26 04:06:00;;;;;;;1.20;0.70;;;;;;;;;;5139365;27;20419;-45
2024/02/26 04:08:26;;;;;;;1.33;0.93;;;;;;;;;;5137426;27;20735;-49
2024/02/26 04:10:52;;;;;;;1.10;0.77;;;;;;;;;;5138081;27;20428;-44
2024/02/26 04:13:18;;;;;;;1.07;0.60;;;;;;;;;;5138216;27;20428;-45
2024/02/26 04:15:44;;;;;;;1.20;1.00;;;;;;;;;;5138985;27;20750;-44
2024/02/26 04:18:10;;;;;;;1.00;0.80;;;;;;;;;;5138097;27;20474;-46
2024/02/26 04:20:36;;;;;;;1.40;0.83;;;;;;;;;;5137906;27;20416;-45
2024/02/26 04:23:03;;;;;;;2.07;0.90;;;;;;;;;;5137654;27;20432;-45
2024/02/26 04:25:29;;;;;;;2.70;1.47;;;;;;;;;;5136221;27;20432;-45
2024/02/26 04:27:55;;;;;;;2.17;1.30;;;;;;;;;;5137073;27;20424;-45
2024/02/26 04:30:21;;;;;;;2.33;1.20;;;;;;;;;;5136331;27;20405;-46
2024/02/26 04:32:47;;;;;;;1.90;1.10;;;;;;;;;;5136060;27;20541;-44
2024/02/26 04:35:13;;;;;;;2.20;1.20;;;;;;;;;;5138319;27;20683;-45
2024/02/26 04:37:39;;;;;;;1.43;0.90;;;;;;;;;;5137696;27;20432;-45
2024/02/26 04:40:06;;;;;;;1.03;0.93;;;;;;;;;;5118819;27;20436;-47
2024/02/26 04:42:32;;;;;;;1.07;0.77;;;;;;;;;;5118482;27;20516;-44
2024/02/26 04:44:58;;;;;;;1.20;0.87;;;;;;;;;;5134487;27;20409;-44
2024/02/26 04:47:24;;;;;;;1.43;0.90;;;;;;;;;;5134535;27;20433;-46
2024/02/26 04:49:50;;;;;;;1.40;0.90;;;;;;;;;;5135034;27;20468;-49
2024/02/26 04:52:16;;;;;;;1.43;1.10;;;;;;;;;;5135418;27;20479;-44
2024/02/26 04:54:42;;;;;;;1.50;1.00;;;;;;;;;;5139056;27;20421;-44
2024/02/26 04:57:08;;;;;;;1.67;1.20;;;;;;;;;;5136981;27;20790;-43
2024/02/26 04:59:34;;;;;;;1.63;1.10;;;;;;;;;;5136679;27;20468;-46
2024/02/26 05:02:00;;;;;;;1.80;1.30;;;;;;;;;;5137377;27;20451;-48
2024/02/26 05:04:26;;;;;;;1.30;1.20;;;;;;;;;;5136596;27;20515;-46
2024/02/26 05:06:53;;;;;;;2.07;1.40;;;;;;;;;;5134924;27;20591;-43
2024/02/26 05:09:20;;;;;;;1.90;1.63;;;;;;;;;;5134692;27;20894;-45
2024/02/26 05:11:46;;;;;;;2.13;1.77;;;;;;;;;;5133684;27;20508;-47
2024/02/26 05:14:12;;;;;;;3.60;1.63;;;;;;;;;;5134000;27;20523;-44
2024/02/26 05:16:38;;;;;;;1.67;1.47;;;;;;;;;;5135564;27;20637;-44
2024/02/26 05:19:05;;;;;;;2.27;1.30;;;;;;;;;;5135198;27;20417;-46
2024/02/26 05:21:31;;;;;;;1.50;1.20;;;;;;;;;;5135175;27;20492;-44
2024/02/26 05:23:57;;;;;;;1.97;1.60;;;;;;;;;;5135569;27;20416;-46
2024/02/26 05:26:23;;;;;;;3.10;1.63;;;;;;;;;;5135579;27;20537;-47
2024/02/26 05:28:50;;;;;;;2.53;1.67;;;;;;;;;;5136354;27;20421;-45
2024/02/26 05:31:16;;;;;;;2.20;1.43;;;;;;;;;;5136655;27;20961;-46
2024/02/26 05:33:42;;;;;;;2.73;1.30;;;;;;;;;;5137519;27;20423;-45
2024/02/26 05:36:08;;;;;;;1.60;1.37;;;;;;;;;;5138048;27;20413;-47
2024/02/26 05:38:34;;;;;;;3.17;1.90;;;;;;;;;;5137562;27;20842;-44
2024/02/26 05:41:01;;;;;;;2.03;1.57;;;;;;;;;;5137298;27;20966;-43
2024/02/26 05:43:28;;;;;;;1.90;1.50;;;;;;;;;;5134968;27;20420;-45
2024/02/26 05:45:54;;;;;;;2.00;1.40;;;;;;;;;;5133552;27;20416;-43
2024/02/26 05:48:20;;;;;;;2.50;1.37;;;;;;;;;;5134534;27;20421;-45
2024/02/26 05:50:47;;;;;;;2.50;1.70;;;;;;;;;;5132543;27;20432;-43
2024/02/26 05:53:14;;;;;;;2.30;1.80;;;;;;;;;;5131609;27;20911;-43
2024/02/26 05:55:43;;;;;;;2.70;2.10;;;;;;;;;;5134419;27;20412;-46
2024/02/26 05:58:09;;;;;;;3.40;3.10;;;;;;;;;;5135559;27;20908;-45
2024/02/26 06:00:35;;;;;;;4.80;4.40;;;;;;;;;;5136664;27;20499;-46
2024/02/26 06:03:02;;;;;;;5.10;4.60;;;;;;;;;;5136613;27;20691;-45
2024/02/26 06:05:28;;;;;;;3.90;3.50;;;;;;;;;;5117474;27;20425;-44
2024/02/26 06:07:54;;;;;;;2.83;2.63;;;;;;;;;;5133862;27;20524;-47
2024/02/26 06:10:21;;;;;;;2.83;2.60;;;;;;;;;;5131427;27;20416;-47
2024/02/26 06:12:48;;;;;;;2.77;2.10;;;;;;;;;;5132308;27;20555;-46
2024/02/26 06:15:14;;;;;;;2.83;1.70;;;;;;;;;;5113467;28;20485;-44
2024/02/26 06:17:40;;;;;;;2.00;1.63;;;;;;;;;;5111908;28;20570;-46
2024/02/26 06:20:11;;;;;;;2.50;2.03;;;;;;;;;;5114670;28;20402;-46
2024/02/26 06:22:37;;;;;;;4.63;1.80;;;;;;;;;;5112084;28;20456;-46
2024/02/26 06:25:03;;;;;;;2.20;2.00;;;;;;;;;;5111668;28;20426;-45
2024/02/26 06:27:29;;;;;;;2.70;2.10;;;;;;;;;;5112720;28;20445;-45
2024/02/26 06:29:55;;;;;;;2.83;2.20;;;;;;;;;;5114333;28;20426;-45
2024/02/26 06:32:22;;;;;;;3.40;2.30;;;;;;;;;;5113535;28;20504;-47
2024/02/26 06:34:49;;;;;;;2.50;2.20;;;;;;;;;;5111683;28;20758;-44
2024/02/26 06:37:15;;;;;;;2.33;2.13;;;;;;;;;;5111675;28;20708;-45
2024/02/26 06:39:41;;;;;;;2.77;2.17;;;;;;;;;;5112950;28;20432;-44
2024/02/26 06:42:08;;;;;;;2.80;2.30;;;;;;;;;;5114034;28;20436;-43
2024/02/26 06:44:34;;;;;;;2.80;2.50;;;;;;;;;;5113809;28;20588;-45
2024/02/26 06:47:00;;;;;;;3.67;2.87;;;;;;;;;;5114219;28;20417;-47
2024/02/26 06:49:26;;;;;;;3.13;2.47;;;;;;;;;;5113233;28;20887;-46
2024/02/26 06:51:52;;;;;;;4.23;2.50;;;;;;;;;;5113849;28;20505;-44
2024/02/26 06:54:18;;;;;;;3.17;2.67;;;;;;;;;;5114680;28;20446;-47
2024/02/26 06:56:44;;;;;;;4.10;2.87;;;;;;;;;;5114404;28;20880;-47
2024/02/26 06:59:10;;;;;;;4.70;3.30;;;;;;;;;;5114165;28;20405;-46
2024/02/26 07:01:36;;;;;;;1.60;1.20;;;;;;;;;;5112763;28;20703;-52
2024/02/26 07:04:02;;;;;;;10.40;1.73;;;;;;;;;;5113288;28;20426;-48
2024/02/26 07:06:28;;;;;;;14.20;5.10;;;;;;;;;;5113477;28;20456;-48
2024/02/26 07:08:54;;;;;;;13.53;5.00;;;;;;;;;;5111923;28;20471;-56
2024/02/26 07:11:20;;;;;;;7.43;3.80;;;;;;;;;;5112636;28;20461;-53
2024/02/26 07:13:47;;;;;;;7.47;3.50;;;;;;;;;;5114667;28;20473;-50
2024/02/26 07:16:13;;;;;;;5.73;2.80;;;;;;;;;;5135163;28;20416;-49
2024/02/26 07:18:45;;;;;;;4.10;2.40;;;;;;;;;;5136015;28;20902;-45
2024/02/26 07:21:15;;;;;;;4.30;2.17;;;;;;;;;;5121809;27;20429;-45
2024/02/26 07:23:41;;;;;;;2.37;2.00;;;;;;;;;;5120893;27;20460;-45
2024/02/26 07:26:08;;;;;;;2.63;1.73;;;;;;;;;;5137842;27;20446;-44
2024/02/26 07:28:34;;;;;;;2.13;1.50;;;;;;;;;;5136763;27;20763;-46
2024/02/26 07:31:00;;;;;;;2.00;1.60;;;;;;;;;;5136629;27;20454;-45
2024/02/26 07:33:26;;;;;;;3.80;1.77;;;;;;;;;;5137549;27;20464;-44
2024/02/26 07:35:53;;;;;;;2.40;1.67;;;;;;;;;;5116249;27;20440;-46
2024/02/26 07:38:19;;;;;;;2.33;2.13;;;;;;;;;;5098317;28;20693;-43
2024/02/26 07:40:45;;;;;;;2.30;1.97;;;;;;;;;;5115371;28;20464;-46
2024/02/26 07:43:11;;;;;;;3.03;2.20;;;;;;;;;;5114652;28;21070;-44
2024/02/26 07:45:37;;;;;;;2.70;2.20;;;;;;;;;;5117194;28;20795;-44
2024/02/26 07:48:03;;;;;;;2.03;1.83;;;;;;;;;;5117445;28;20409;-45
2024/02/26 07:50:29;;;;;;;1.90;1.63;;;;;;;;;;5115757;28;20433;-46
2024/02/26 07:52:55;;;;;;;2.53;2.33;;;;;;;;;;5114725;28;20504;-48
2024/02/26 07:55:22;;;;;;;2.40;2.00;;;;;;;;;;5117075;28;20431;-45
2024/02/26 07:57:48;;;;;;;3.00;2.17;;;;;;;;;;5115842;28;20716;-44
2024/02/26 08:00:16;;;;;;;3.37;2.37;;;;;;;;;;5116831;28;20490;-45
2024/02/26 08:02:43;;;;;;;2.87;2.20;;;;;;;;;;5116165;28;20429;-44
2024/02/26 08:05:09;;;;;;;2.00;1.80;;;;;;;;;;5116557;28;20425;-46
2024/02/26 08:07:35;;;;;;;2.20;1.90;;;;;;;;;;5117207;28;20714;-45
2024/02/26 08:10:01;;;;;;;2.37;1.90;;;;;;;;;;5117065;28;20847;-44
2024/02/26 08:12:27;;;;;;;2.10;1.80;;;;;;;;;;5116088;28;20467;-44
2024/02/26 08:14:53;;;;;;;1.90;1.70;;;;;;;;;;5110481;28;20457;-46
2024/02/26 08:17:19;;;;;;;2.30;1.17;;;;;;;;;;5116426;28;20453;-46
2024/02/26 08:19:45;;;;;;;2.43;1.90;;;;;;;;;;5116147;28;20516;-44
2024/02/26 08:22:15;;;;;;;2.60;1.60;;;;;;;;;;5114692;28;20433;-45
2024/02/26 08:24:42;;;;;;;1.70;1.40;;;;;;;;;;5116762;28;20421;-46
2024/02/26 08:27:08;;;;;;;2.40;1.60;;;;;;;;;;5116762;28;20792;-46
2024/02/26 08:29:34;;;;;;;1.53;1.03;;;;;;;;;;5116502;28;20477;-47
2024/02/26 08:32:00;;;;;;;2.17;1.47;;;;;;;;;;5115323;28;20560;-46
2024/02/26 08:34:26;;;;;;;2.00;1.37;;;;;;;;;;5098647;28;20490;-44
2024/02/26 08:36:52;;;;;;;1.80;1.50;;;;;;;;;;5117069;28;20422;-43
2024/02/26 08:39:18;;;;;;;1.70;1.33;;;;;;;;;;5115001;28;20412;-46
2024/02/26 08:41:44;;;;;;;1.97;1.30;;;;;;;;;;5114481;28;20422;-47
2024/02/26 08:44:11;;;;;;;1.90;1.30;;;;;;;;;;5113928;28;20486;-43
2024/02/26 08:46:37;;;;;;;2.10;1.30;;;;;;;;;;5114702;28;20771;-46
2024/02/26 08:49:03;;;;;;;1.93;1.40;;;;;;;;;;5114925;28;20430;-43
2024/02/26 08:51:29;;;;;;;1.50;1.30;;;;;;;;;;5113840;28;20975;-46
2024/02/26 08:53:55;;;;;;;1.50;1.40;;;;;;;;;;5113011;28;20402;-43
2024/02/26 08:56:22;;;;;;;2.07;1.37;;;;;;;;;;5112397;28;20418;-45
2024/02/26 08:58:48;;;;;;;1.47;1.10;;;;;;;;;;5112536;28;20448;-45
2024/02/26 09:01:18;;;;;;;1.33;1.20;;;;;;;;;;5114742;28;20715;-45
2024/02/26 09:03:44;;;;;;;2.87;1.53;;;;;;;;;;5114243;28;20479;-45
2024/02/26 09:06:11;;;;;;;2.07;1.87;;;;;;;;;;5115048;28;20418;-44
2024/02/26 09:08:37;;;;;;;4.10;2.10;;;;;;;;;;5112496;28;20425;-44
2024/02/26 09:11:03;;;;;;;2.10;1.90;;;;;;;;;;5115759;28;20433;-45
2024/02/26 09:13:30;;;;;;;2.10;1.90;;;;;;;;;;5115739;28;20471;-43
2024/02/26 09:15:56;;;;;;;3.17;2.67;;;;;;;;;;5133498;27;20503;-44
2024/02/26 09:18:22;;;;;;;2.87;1.60;;;;;;;;;;5136498;27;20821;-45
2024/02/26 09:20:48;;;;;;;2.20;1.53;;;;;;;;;;5137939;27;20454;-43
2024/02/26 09:23:14;;;;;;;2.07;1.50;;;;;;;;;;5135983;27;20455;-45
2024/02/26 09:25:40;;;;;;;3.30;1.77;;;;;;;;;;5135736;27;20827;-45
2024/02/26 09:28:06;;;;;;;1.50;1.40;;;;;;;;;;5133825;27;20678;-43
2024/02/26 09:30:32;;;;;;;2.23;1.80;;;;;;;;;;5135678;27;20771;-47
2024/02/26 09:32:58;;;;;;;1.87;1.57;;;;;;;;;;5135523;27;20472;-45
2024/02/26 09:35:24;;;;;;;2.83;2.17;;;;;;;;;;5134202;27;20446;-43
2024/02/26 09:37:50;;;;;;;5.47;4.90;;;;;;;;;;5115718;27;20822;-44
2024/02/26 09:40:16;;;;;;;16.33;10.27;;;;;;;;;;5133908;27;20432;-44
2024/02/26 09:42:44;;;;;;;7.30;5.40;;;;;;;;;;5134888;27;20429;-44
2024/02/26 09:45:12;;;;;;;3.57;2.57;;;;;;;;;;5134223;27;20405;-47
2024/02/26 09:47:39;;;;;;;3.87;1.87;;;;;;;;;;5135292;27;20425;-47
2024/02/26 09:50:08;;;;;;;1.63;1.20;;;;;;;;;;5136227;27;20711;-46
2024/02/26 09:52:35;;;;;;;2.57;1.40;;;;;;;;;;5135033;27;20469;-43
2024/02/26 09:55:03;;;;;;;1.60;1.30;;;;;;;;;;5135260;27;20431;-47
2024/02/26 09:57:29;;;;;;;1.73;1.03;;;;;;;;;;5135278;27;20435;-46
2024/02/26 10:00:05;;;;;;;2.80;1.10;;;;;;;;;;5137088;27;20427;-43
2024/02/26 10:02:31;;;;;;;1.60;1.00;;;;;;;;;;5136386;27;20492;-43
2024/02/26 10:05:01;;;;;;;1.47;0.90;;;;;;;;;;5135425;27;20424;-44
2024/02/26 10:07:29;;;;;;;1.27;0.90;;;;;;;;;;5115465;27;20679;-44
2024/02/26 10:09:55;;;;;;;2.17;1.00;;;;;;;;;;5135278;27;20479;-46
2024/02/26 10:12:22;;;;;;;2.03;1.13;;;;;;;;;;5135130;27;20547;-44
2024/02/26 10:14:48;;;;;;;1.40;0.93;;;;;;;;;;5134233;27;20996;-43
2024/02/26 10:17:14;;;;;;;1.77;0.80;;;;;;;;;;5115767;27;20531;-44
2024/02/26 10:19:43;;;;;;;1.60;0.90;;;;;;;;;;5134938;27;20452;-45
2024/02/26 10:22:09;;;;;;;2.97;1.20;;;;;;;;;;5134521;27;20425;-45
2024/02/26 10:24:35;;;;;;;1.40;0.80;;;;;;;;;;5133587;27;20420;-44
2024/02/26 10:27:02;;;;;;;2.60;1.03;;;19.10;1.00;;;;;;5133512;27;20408;-45
2024/02/26 10:29:28;;;;;;;1.20;0.90;;;;;;;;;;5134643;27;20714;-44
2024/02/26 10:31:55;;;;;;;1.30;0.90;;;;;;;;;;5117208;27;20556;-45
2024/02/26 10:34:21;;;;;;;1.87;1.00;;;;;;;;;;5135623;27;20439;-44
2024/02/26 10:36:47;;;;;;;1.37;1.10;;;;;;;;;;5135186;27;20436;-44
2024/02/26 10:39:14;;;;;;;1.27;1.10;;;;;;;;;;5135774;27;20405;-45
2024/02/26 10:41:43;;;;;;;1.47;0.93;;;;;;;;;;5135859;27;20424;-44
2024/02/26 10:44:12;;;;;;;4.07;1.90;;;;;;;;;;5135727;27;20527;-45
2024/02/26 10:46:40;;;;;;;3.97;1.43;;;;;;;;;;5135622;27;20424;-45
2024/02/26 10:49:12;;;;;;;3.60;1.23;;;;;;;;;;5116227;27;20433;-46
2024/02/26 10:51:39;;;;;;;3.77;1.40;;;;;;;;;;5134235;27;20779;-44
2024/02/26 10:54:07;;;;;;;1.70;1.27;;;;;;;;;;5135089;27;20408;-46
2024/02/26 10:56:34;;;;;;;2.30;1.80;;;;;;;;;;5134869;27;20524;-44
2024/02/26 10:59:00;;;;;;;1.50;1.40;;;;;;;;;;5133406;27;20431;-46
2024/02/26 11:01:29;;;;;;;2.37;1.70;;;;;;;;;;5132878;27;20436;-44
2024/02/26 11:03:55;;;;;;;3.80;2.33;;;;;;;;;;5134509;27;20453;-45
2024/02/26 11:06:22;;;;;;;2.27;1.90;;;;;;;;;;5132738;27;20416;-44
2024/02/26 11:08:49;;;;;;;2.93;2.20;;;;;;;;;;5131657;27;20409;-47
2024/02/26 11:11:16;;;;;;;5.13;2.30;;;;;;;;;;5133616;28;20447;-45
2024/02/26 11:13:44;;;;;;;1.70;1.30;;;;;;;;;;5123983;28;20433;-44
2024/02/26 11:16:11;;;;;;;2.70;1.43;;;;;;;;;;5131590;28;20472;-44
2024/02/26 11:18:37;;;;;;;1.70;1.60;;;;;;;;;;5131782;28;20427;-46
2024/02/26 11:21:04;;;;;;;2.17;1.70;;;;;;;;;;5132412;28;20512;-46
2024/02/26 11:23:32;;;;;;;2.07;1.30;;;;;;;;;;5113766;28;20464;-48
2024/02/26 11:25:59;;;;;;;1.90;1.50;;;;;;;;;;5131885;28;20421;-43
2024/02/26 11:28:27;;;;;;;1.90;1.43;;;;;;;;;;5114946;28;20515;-45
2024/02/26 11:30:53;;;;;;;2.20;1.63;;;;;;;;;;5116347;28;20467;-43
2024/02/26 11:33:20;;;;;;;1.80;1.50;;;;;;;;;;5135483;28;20927;-44
2024/02/26 11:35:46;;;;;;;1.87;1.17;;;;;;;;;;5134718;28;20424;-46
2024/02/26 11:38:23;;;;;;;2.33;1.40;;;;;;;;;;5116010;28;20461;-46
2024/02/26 11:40:49;;;;;;;1.97;1.70;;;;;;;;;;5128099;28;20440;-46
2024/02/26 11:43:15;;;;;;;3.23;1.40;;;;;;;;;;5135908;28;20877;-47
2024/02/26 11:45:48;;;;;;;2.50;1.57;;;;;;;;;;5117714;28;20447;-45
2024/02/26 11:48:15;;;;;;;2.20;1.33;;;;;;;;;;5135662;28;20408;-46
2024/02/26 11:50:46;;;;;;;1.90;1.40;;;;;;;;;;5133688;28;20432;-45
2024/02/26 11:53:29;;;;;;;2.27;1.77;;;;;;;;;;5134729;28;20505;-47
2024/02/26 11:56:14;;;;;;;1.80;1.30;;;;;;;;;;5116717;28;20436;-46
2024/02/26 11:58:41;;;;;;;1.80;1.17;;;;;;;;;;5126346;28;20848;-44
2024/02/26 12:01:27;;;;;;;2.63;1.30;;;;;;;;;;5132798;28;20428;-44
2024/02/26 12:03:54;;;;;;;1.70;1.20;;;17.90;1.00;;;;;;5128680;28;20424;-46
2024/02/26 12:06:21;;;;;;;5.13;1.73;;;17.80;1.00;;;;;;5132505;27;20412;-47
2024/02/26 12:08:46;;;;;;;4.00;1.80;;;17.60;1.00;;;;;;5117175;27;20711;-49
2024/02/26 12:11:16;;;;;;;4.27;1.40;;;;;;;;;;5135624;27;20455;-46
2024/02/26 12:13:45;;;;;;;2.17;1.60;;;;;;;;;;5137334;27;20214;-45
2024/02/26 12:16:12;;;;;;;3.70;1.70;;;;;;;;;;5137047;27;20423;-47
2024/02/26 12:18:41;;;;;;;3.67;1.70;;;;;;;;;;5136562;27;20442;-44
2024/02/26 12:21:07;;;;;;;3.77;1.70;;;;;;;;;;5134881;27;20569;-47
2024/02/26 12:23:33;;;;;;;2.60;1.10;;;;;;;;;;5135138;27;20892;-46
2024/02/26 12:25:59;;;;;;;1.93;1.30;;;;;;;;;;5133758;27;20527;-45
2024/02/26 12:28:31;;;;;;;1.70;1.53;;;16.50;1.00;;;;;;5131151;27;20912;-46
2024/02/26 12:30:59;;;;;;;1.93;1.37;;;17.00;1.00;;;;;;5114361;27;20527;-44
2024/02/26 12:33:26;;;;;;;1.87;1.30;;;;;;;;;;5115221;27;20405;-44
2024/02/26 12:35:52;;;;;;;4.93;1.43;;;;;;;;;;5127281;27;20419;-46
2024/02/26 12:38:18;;;;;;;2.10;1.90;;;;;;;;;;5132802;27;20416;-49
2024/02/26 12:40:45;;;;;;;3.13;1.10;;;;;;;;;;5133599;27;20507;-46
2024/02/26 12:43:14;;;;;;;1.30;0.97;;;;;;;;;;5132554;27;20439;-44
2024/02/26 12:45:46;;;;;;;1.37;1.17;;;;;;;;;;5135143;27;20506;-47
2024/02/26 12:48:12;;;;;;;1.07;0.70;;;;;;;;;;5135160;27;20393;-45
2024/02/26 12:50:38;;;;;;;1.90;0.93;;;;;;;;;;5117660;27;20500;-44
2024/02/26 12:53:06;;;;;;;1.30;0.90;;;;;;;;;;5133883;27;20475;-51
2024/02/26 12:55:34;;;;;;;1.47;0.90;;;;;;;;;;5134877;27;20783;-48
2024/02/26 12:58:00;;;;;;;1.03;0.40;;;;;;;;;;5115640;27;20452;-44
2024/02/26 13:00:28;;;;;;;1.17;0.50;;;;;;;;;;5131706;27;20408;-46
2024/02/26 13:02:55;;;;;;;1.30;0.70;;;;;;;;;;5132963;27;20428;-46
2024/02/26 13:05:22;;;;;;;0.97;0.60;;;;;;;;;;5133211;27;20481;-46
2024/02/26 13:07:48;;;;;;;1.63;0.50;;;;;;;;;;5135815;27;20456;-46
2024/02/26 13:10:14;;;;;;;2.17;1.00;;;;;;;;;;5132873;27;20538;-48
2024/02/26 13:12:47;;;;;;;1.40;0.73;;;;;;;;;;5133691;27;20884;-46
2024/02/26 13:15:17;;;;;;;1.20;0.60;;;;;;;;;;5134761;27;20512;-45
2024/02/26 13:17:44;;;;;;;1.00;0.50;;;;;;;;;;5133973;27;20722;-47
2024/02/26 13:20:10;;;;;;;1.00;0.60;;;;;;;;;;5134642;27;20519;-47
2024/02/26 13:22:37;;;;;;;1.10;0.70;;;;;;;;;;5134352;27;20447;-45
2024/02/26 13:25:03;;;;;;;2.20;0.93;;;;;;;;;;5117615;27;21014;-44
2024/02/26 13:27:30;;;;;;;1.20;0.70;;;;;;;;;;5133846;27;20473;-49
2024/02/26 13:30:06;;;;;;;1.20;0.67;;;;;;;;;;5133150;27;20571;-46
2024/02/26 13:32:35;;;;;;;1.07;0.53;;;;;;;;;;5132247;27;20478;-48
2024/02/26 13:35:12;;;;;;;1.03;0.70;;;;;;;;;;5132250;27;20484;-46
2024/02/26 13:37:38;;;;;;;1.03;0.40;;;;;;;;;;5132444;27;20525;-47
2024/02/26 13:40:05;;;;;;;1.23;0.77;;;;;;;;;;5135116;27;20428;-48
2024/02/26 13:42:31;;;;;;;1.80;0.60;;;;;;;;;;5133764;27;20416;-46
2024/02/26 13:44:57;;;;;;;1.73;0.83;;;;;;;;;;5116484;27;20626;-44
2024/02/26 13:47:23;;;;;;;1.23;0.63;;;;;;;;;;5133898;27;20585;-45
2024/02/26 13:49:49;;;;;;;1.13;0.60;;;;;;;;;;5132088;27;20595;-45
2024/02/26 13:52:15;;;;;;;0.97;0.43;;;;;;;;;;5132810;27;20476;-45
2024/02/26 13:54:42;;;;;;;1.17;0.50;;;;;;;;;;5114871;27;20590;-45
2024/02/26 13:57:09;;;;;;;1.30;0.80;;;;;;;;;;5117346;27;20443;-47
2024/02/26 13:59:35;;;;;;;1.20;0.70;;;;;;;;;;5117149;27;20895;-44
2024/02/26 14:02:01;;;;;;;2.20;0.90;;;;;;;;;;5133770;27;20439;-45
2024/02/26 14:04:27;;;;;;;1.00;0.60;;;;;;;;;;5117794;27;20429;-45
2024/02/26 14:06:53;;;;;;;1.40;0.70;;;;;;;;;;5135768;27;20421;-50
2024/02/26 14:09:19;;;;;;;1.00;0.50;;;;;;;;;;5134279;27;20474;-48
2024/02/26 14:11:48;;;;;;;1.93;0.83;;;;;;;;;;5117275;27;20486;-45
2024/02/26 14:14:15;;;;;;;1.10;0.50;;;;;;;;;;5134931;27;20476;-44
2024/02/26 14:16:41;;;;;;;0.90;0.60;;;;;;;;;;5135780;27;20721;-43
2024/02/26 14:19:07;;;;;;;1.07;0.57;;;;;;;;;;5135749;27;20500;-42
2024/02/26 14:21:33;;;;;;;1.43;0.60;;;;;;;;;;5136023;27;20472;-45
2024/02/26 14:23:59;;;;;;;1.27;0.60;;;;;;;;;;5135155;27;20810;-45
2024/02/26 14:26:25;;;;;;;1.10;0.70;;;;;;;;;;5134386;27;20423;-45
2024/02/26 14:28:51;;;;;;;2.03;0.70;;;;;;;;;;5135246;27;20433;-43
2024/02/26 14:31:20;;;;;;;1.30;0.50;;;;;;;;;;5132024;27;20490;-46
2024/02/26 14:33:46;;;;;;;1.77;0.60;;;;;;;;;;5117656;27;20416;-44
2024/02/26 14:36:12;;;;;;;3.57;1.70;;;;;;;;;;5133879;27;20405;-45
2024/02/26 14:38:39;;;;;;;1.20;0.70;;;;;;;;;;5135811;27;20429;-46